Big Bear Station Historical Data
Daily Summary for April 1, 2019 Units:  Metric    English   Both
Next Day »
Daily Weekly Monthly Yearly Custom
  High: Low: Average:
Temperature: 16.2 °C -1.9 °C 6.5 °C
Dew Point: 1.3 °C -3.7 °C -1.7 °C
Humidity: 92% 28% 61%
Wind Speed: 10.1km/h 0km/h 2.3km/h
Wind Gust: -1607.7km/h - -
Wind- - West
Pressure: 797.7 hPa 794 hPa -
Precipitation: 0 mm    
Historical Graphs
 
 
Tabular Data for April 1, 2019
Time Temperature Dew Point Pressure Wind Wind Speed Wind Gust Humidity Rainfall Rate (Hourly)
00:08 0 °C -3.4 °C 797.7 hPa Calm   -1607.7 km/h 78% 0 mm
00:23 -0.1 °C -3.3 °C 797.7 hPa Calm   -1607.7 km/h 79% 0 mm
00:38 -0.4 °C -3.4 °C 797.4 hPa Calm   -1607.7 km/h 80% 0 mm
00:54 -0.6 °C -3.3 °C 797.4 hPa Calm   -1607.7 km/h 82% 0 mm
01:09 -0.7 °C -3.4 °C 797.4 hPa Calm   -1607.7 km/h 82% 0 mm
01:25 -0.9 °C -3.3 °C 797.4 hPa Calm   -1607.7 km/h 84% 0 mm
01:40 -1 °C -3.2 °C 797.1 hPa Calm   -1607.7 km/h 85% 0 mm
01:55 -1.2 °C -3.3 °C 797.1 hPa Calm   -1607.7 km/h 86% 0 mm
02:11 -1.1 °C -3.3 °C 797.1 hPa Calm   -1607.7 km/h 85% 0 mm
02:26 -1.3 °C -3.5 °C 797.1 hPa Calm   -1607.7 km/h 85% 0 mm
02:41 -1.2 °C -3.3 °C 797.1 hPa Calm   -1607.7 km/h 86% 0 mm
02:56 -1.5 °C -3.4 °C 796.7 hPa Calm   -1607.7 km/h 87% 0 mm
03:12 -1.3 °C -3 °C 796.7 hPa Calm   -1607.7 km/h 88% 0 mm
03:27 -1.5 °C -3.2 °C 796.7 hPa Calm   -1607.7 km/h 88% 0 mm
03:43 -1.5 °C -3.2 °C 796.4 hPa Calm   -1607.7 km/h 88% 0 mm
03:58 -1.4 °C -2.9 °C 796.4 hPa Calm   -1607.7 km/h 89% 0 mm
04:13 -1.4 °C -2.8 °C 796.4 hPa Calm   -1607.7 km/h 90% 0 mm
04:28 -1.6 °C -3.1 °C 796.4 hPa Calm   -1607.7 km/h 90% 0 mm
04:43 -1.6 °C -3.1 °C 796.4 hPa Calm   -1607.7 km/h 90% 0 mm
04:59 -1.8 °C -3.2 °C 796.4 hPa Calm   -1607.7 km/h 90% 0 mm
05:14 -1.7 °C -3.2 °C 796.4 hPa Calm   -1607.7 km/h 90% 0 mm
05:29 -1.9 °C -3.3 °C 796.7 hPa Calm   -1607.7 km/h 90% 0 mm
05:44 -1.9 °C -3.2 °C 796.4 hPa Calm   -1607.7 km/h 91% 0 mm
05:59 -1.8 °C -3.1 °C 796.7 hPa Calm   -1607.7 km/h 91% 0 mm
06:15 -1.8 °C -2.9 °C 796.7 hPa Calm   -1607.7 km/h 92% 0 mm
06:30 -1.8 °C -2.9 °C 796.7 hPa Calm   -1607.7 km/h 92% 0 mm
06:45 -1.8 °C -2.9 °C 796.7 hPa Calm   -1607.7 km/h 92% 0 mm
07:00 -1.3 °C -2.7 °C 796.7 hPa Calm   -1607.7 km/h 90% 0 mm
07:16 -1.2 °C -2.7 °C 796.7 hPa Calm   -1607.7 km/h 90% 0 mm
07:31 -1 °C -2.6 °C 796.7 hPa Calm   -1607.7 km/h 89% 0 mm
07:46 -0.4 °C -1.8 °C 796.7 hPa Calm   -1607.7 km/h 90% 0 mm
08:01 0.2 °C -1.2 °C 796.4 hPa Calm   -1607.7 km/h 90% 0 mm
08:16 1.3 °C -0.3 °C 796.7 hPa Calm   -1607.7 km/h 89% 0 mm
08:32 2.5 °C 0.4 °C 796.7 hPa Calm   -1607.7 km/h 86% 0 mm
08:47 4.1 °C 1.3 °C 796.7 hPa Calm   -1607.7 km/h 82% 0 mm
09:02 5.4 °C 1.1 °C 796.7 hPa Calm   -1607.7 km/h 74% 0 mm
09:17 6.3 °C 0.6 °C 796.4 hPa Calm   -1607.7 km/h 67% 0 mm
09:32 7.2 °C -0.5 °C 796.7 hPa Calm   -1607.7 km/h 58% 0 mm
09:48 8.1 °C -0.4 °C 796.7 hPa Calm   -1607.7 km/h 55% 0 mm
10:03 9.4 °C -3.2 °C 796.7 hPa Calm   -1607.7 km/h 41% 0 mm
10:18 10.6 °C -3.1 °C 796.7 hPa East 4.3 km/h -1607.7 km/h 38% 0 mm
10:33 11.4 °C -3.6 °C 796.7 hPa NNW 3.5 km/h -1607.7 km/h 35% 0 mm
10:48 11.5 °C -2.3 °C 796.7 hPa NW 5.1 km/h -1607.7 km/h 38% 0 mm
11:04 12.1 °C -2.9 °C 796.7 hPa WNW 6 km/h -1607.7 km/h 35% 0 mm
11:19 12.7 °C -2 °C 796.4 hPa NW 6 km/h -1607.7 km/h 36% 0 mm
11:34 13.5 °C -0.6 °C 796.4 hPa NW 7.6 km/h -1607.7 km/h 38% 0 mm
11:50 13.9 °C -1.3 °C 796.4 hPa NNE 6 km/h -1607.7 km/h 35% 0 mm
12:05 14.8 °C -0.2 °C 796 hPa NW 7.6 km/h -1607.7 km/h 36% 0 mm
12:20 14.1 °C -1.1 °C 796 hPa North 8.5 km/h -1607.7 km/h 35% 0 mm
12:35 14.7 °C 0.2 °C 796 hPa NNW 7.6 km/h -1607.7 km/h 37% 0 mm
12:51 14.2 °C -0.7 °C 795.7 hPa NW 6.8 km/h -1607.7 km/h 36% 0 mm
13:06 14.8 °C -0.6 °C 795.7 hPa NW 6.8 km/h -1607.7 km/h 35% 0 mm
13:21 14.6 °C -1.1 °C 795.7 hPa NNW 6.8 km/h -1607.7 km/h 34% 0 mm
13:36 14.9 °C -1.7 °C 795.7 hPa NNW 6.8 km/h -1607.7 km/h 32% 0 mm
13:52 14.6 °C -3.7 °C 795.4 hPa NNE 6.8 km/h -1607.7 km/h 28% 0 mm
14:07 15.1 °C -2.8 °C 795.4 hPa NNW 7.6 km/h -1607.7 km/h 29% 0 mm
14:22 16.1 °C -2.4 °C 795.4 hPa West 5.1 km/h -1607.7 km/h 28% 0 mm
14:38 16.2 °C -2.3 °C 795 hPa South 3.5 km/h -1607.7 km/h 28% 0 mm
14:53 15.6 °C -1.4 °C 795 hPa WSW 3.5 km/h -1607.7 km/h 31% 0 mm
15:08 15.5 °C -1.1 °C 795 hPa NW 7.6 km/h -1607.7 km/h 32% 0 mm
15:23 15.2 °C -1.8 °C 795 hPa NNW 5.1 km/h -1607.7 km/h 31% 0 mm
15:38 15.4 °C -0.8 °C 794.7 hPa North 6 km/h -1607.7 km/h 33% 0 mm
15:54 15 °C -2 °C 794.7 hPa North 2.7 km/h -1607.7 km/h 31% 0 mm
16:09 15 °C -2 °C 794.7 hPa NNW 9.3 km/h -1607.7 km/h 31% 0 mm
16:24 14.7 °C -2.2 °C 794.4 hPa South 6.8 km/h -1607.7 km/h 31% 0 mm
16:40 14.6 °C -1.9 °C 794.4 hPa NW 7.6 km/h -1607.7 km/h 32% 0 mm
16:55 14.9 °C -2.1 °C 794.4 hPa WNW 10.1 km/h -1607.7 km/h 31% 0 mm
17:10 15.7 °C -0.9 °C 794.4 hPa NW 7.6 km/h -1607.7 km/h 32% 0 mm
17:25 14.8 °C -1.8 °C 794.4 hPa Calm   -1607.7 km/h 32% 0 mm
17:40 14 °C -1.6 °C 794.4 hPa NNW 4.3 km/h -1607.7 km/h 34% 0 mm
17:56 12.3 °C -1.7 °C 794.4 hPa NW 6 km/h -1607.7 km/h 38% 0 mm
18:11 11.8 °C -2.1 °C 794.4 hPa South 10.1 km/h -1607.7 km/h 38% 0 mm
18:26 11.2 °C -1.6 °C 794.4 hPa SSW 4.3 km/h -1607.7 km/h 41% 0 mm
18:41 10.4 °C -0.4 °C 794 hPa Calm   -1607.7 km/h 47% 0 mm
18:56 9.4 °C -0.2 °C 794 hPa Calm   -1607.7 km/h 51% 0 mm
19:12 8.9 °C -0.2 °C 794.4 hPa Calm   -1607.7 km/h 53% 0 mm
19:27 8.3 °C -0.2 °C 794.4 hPa Calm   -1607.7 km/h 55% 0 mm
19:42 7.7 °C -0.3 °C 794.4 hPa Calm   -1607.7 km/h 57% 0 mm
19:57 7.1 °C -0.4 °C 794.4 hPa Calm   -1607.7 km/h 59% 0 mm
20:12 6.6 °C -0.4 °C 794.4 hPa Calm   -1607.7 km/h 61% 0 mm
20:28 6.1 °C -0.2 °C 794.4 hPa Calm   -1607.7 km/h 64% 0 mm
20:43 5.6 °C 0.2 °C 794.4 hPa Calm   -1607.7 km/h 68% 0 mm
20:58 5.6 °C -0.2 °C 794.4 hPa Calm   -1607.7 km/h 66% 0 mm
21:13 5.6 °C -0.4 °C 794.7 hPa Calm   -1607.7 km/h 65% 0 mm
21:29 5.6 °C -0.9 °C 794.7 hPa Calm   -1607.7 km/h 63% 0 mm
21:44 5.6 °C -0.7 °C 794.7 hPa Calm   -1607.7 km/h 64% 0 mm
21:59 5.4 °C -0.9 °C 794.7 hPa Calm   -1607.7 km/h 64% 0 mm
22:14 5.5 °C -0.6 °C 794.4 hPa Calm   -1607.7 km/h 65% 0 mm
22:29 5.7 °C -0.3 °C 794.4 hPa Calm   -1607.7 km/h 65% 0 mm
22:45 5.5 °C -0.2 °C 794.4 hPa Calm   -1607.7 km/h 67% 0 mm
23:00 5.6 °C -0.4 °C 794.4 hPa Calm   -1607.7 km/h 65% 0 mm
23:15 5.5 °C -0.8 °C 794.4 hPa Calm   -1607.7 km/h 64% 0 mm
23:30 5.9 °C -0.6 °C 794.4 hPa Calm   -1607.7 km/h 63% 0 mm
23:45 6.3 °C -0.9 °C 794 hPa WSW 3.5 km/h -1607.7 km/h 60% 0 mm
Big Bear CA Weather